createdAt,value
2018-09-14T00:00:54.859Z,13.93
2018-09-14T00:03:24.931Z,15.75
2018-09-14T00:05:55.102Z,18.10
2018-09-14T00:08:25.214Z,18.25
2018-09-14T00:10:55.314Z,18.02
2018-09-14T00:13:25.487Z,18.77
2018-09-14T00:15:55.547Z,18.40
2018-09-14T00:18:25.547Z,19.45
2018-09-14T00:20:55.724Z,18.48
2018-09-14T00:23:25.786Z,18.50
2018-09-14T00:25:55.955Z,18.47
2018-09-14T00:28:25.959Z,17.12
2018-09-14T00:30:56.340Z,18.10
2018-09-14T00:33:26.155Z,17.35
2018-09-14T00:35:56.346Z,18.95
2018-09-14T00:38:26.435Z,18.15
2018-09-14T00:40:56.514Z,18.52
2018-09-14T00:43:26.652Z,17.65
2018-09-14T00:45:56.775Z,18.82
2018-09-14T00:48:26.807Z,17.48
2018-09-14T00:50:56.947Z,17.73
2018-09-14T00:53:26.934Z,19.17
2018-09-14T00:55:57.150Z,17.57
2018-09-14T00:58:27.249Z,18.82
2018-09-14T01:00:57.516Z,19.73
2018-09-14T01:03:27.384Z,19.20
2018-09-14T01:05:57.562Z,18.55
2018-09-14T01:08:27.615Z,19.10
2018-09-14T01:10:57.751Z,19.23
2018-09-14T01:13:27.766Z,20.68
2018-09-14T01:15:58.039Z,20.60
2018-09-14T01:18:27.986Z,21.77
2018-09-14T01:20:58.190Z,20.65
2018-09-14T01:23:28.167Z,20.77
2018-09-14T01:25:58.293Z,21.40
2018-09-14T01:28:28.467Z,21.30
2018-09-14T01:30:58.607Z,21.02
2018-09-14T01:33:28.676Z,19.40
2018-09-14T01:36:03.926Z,20.85
2018-09-14T01:38:33.100Z,20.85
2018-09-14T01:41:02.242Z,20.97
2018-09-14T01:43:31.383Z,20.27
2018-09-14T01:46:00.549Z,21.43
2018-09-14T01:48:29.699Z,21.83
2018-09-14T01:50:59.396Z,21.90
2018-09-14T01:53:29.575Z,21.70
2018-09-14T01:55:59.607Z,22.98
2018-09-14T01:58:29.690Z,22.58
2018-09-14T02:00:59.852Z,23.67
2018-09-14T02:03:29.986Z,24.00
2018-09-14T02:05:59.999Z,24.57
2018-09-14T02:08:30.097Z,24.80
2018-09-14T02:11:00.147Z,23.18
2018-09-14T02:13:30.404Z,23.98
2018-09-14T02:16:00.451Z,24.80
2018-09-14T02:18:30.577Z,23.75
2018-09-14T02:21:00.471Z,24.23
2018-09-14T02:23:30.538Z,24.87
2018-09-14T02:26:00.682Z,23.35
2018-09-14T02:28:30.760Z,24.30
2018-09-14T02:31:00.735Z,24.57
2018-09-14T02:33:30.879Z,22.93
2018-09-14T02:36:00.948Z,23.90
2018-09-14T02:38:30.943Z,25.12
2018-09-14T02:41:00.979Z,23.47
2018-09-14T02:43:31.056Z,24.95
2018-09-14T02:46:01.119Z,23.25
2018-09-14T02:48:31.231Z,24.07
2018-09-14T02:51:01.282Z,23.90
2018-09-14T02:53:31.332Z,23.62
2018-09-14T02:56:01.471Z,23.77
2018-09-14T02:58:31.448Z,23.07
2018-09-14T03:01:01.517Z,23.50
2018-09-14T03:03:31.616Z,23.25
2018-09-14T03:06:01.667Z,24.65
2018-09-14T03:08:31.735Z,24.75
2018-09-14T03:11:01.865Z,23.70
2018-09-14T03:13:31.871Z,23.47
2018-09-14T03:16:01.987Z,22.80
2018-09-14T03:18:32.008Z,23.40
2018-09-14T03:21:02.164Z,24.45
2018-09-14T03:23:32.128Z,23.32
2018-09-14T03:26:02.199Z,22.30
2018-09-14T03:28:32.281Z,23.77
2018-09-14T03:31:02.500Z,25.23
2018-09-14T03:33:32.420Z,24.37
2018-09-14T03:36:02.518Z,25.10
2018-09-14T03:38:32.672Z,24.90
2018-09-14T03:41:02.654Z,23.47
2018-09-14T03:43:32.851Z,24.85
2018-09-14T03:46:02.796Z,25.82
2018-09-14T03:48:32.927Z,25.10
2018-09-14T03:51:03.032Z,25.62
2018-09-14T03:53:33.091Z,25.62
2018-09-14T03:56:03.224Z,25.02
2018-09-14T03:58:33.198Z,27.37
2018-09-14T04:01:03.367Z,25.40
2018-09-14T04:03:33.353Z,25.05
2018-09-14T04:06:03.353Z,26.20
2018-09-14T04:08:33.551Z,26.35
2018-09-14T04:11:03.639Z,25.90
2018-09-14T04:13:33.648Z,27.35
2018-09-14T04:16:03.744Z,26.48
2018-09-14T04:18:33.764Z,25.72
2018-09-14T04:21:03.944Z,25.68
2018-09-14T04:23:33.977Z,25.35
2018-09-14T04:26:03.997Z,25.23
2018-09-14T04:28:34.028Z,25.05
2018-09-14T04:31:04.531Z,25.95
2018-09-14T04:33:34.239Z,24.07
2018-09-14T04:36:04.285Z,26.62
2018-09-14T04:38:34.274Z,27.60
2018-09-14T04:41:04.439Z,26.14
2018-09-14T04:43:34.448Z,25.72
2018-09-14T04:46:04.611Z,25.77
2018-09-14T04:48:34.650Z,25.90
2018-09-14T04:51:04.767Z,25.52
2018-09-14T04:53:34.675Z,25.50
2018-09-14T04:56:04.844Z,25.62
2018-09-14T04:58:34.855Z,26.05
2018-09-14T05:01:05.259Z,24.43
2018-09-14T05:03:35.340Z,27.95
2018-09-14T05:06:05.109Z,24.98
2018-09-14T05:08:35.077Z,26.05
2018-09-14T05:11:05.192Z,26.77
2018-09-14T05:13:35.188Z,24.82
2018-09-14T05:16:05.388Z,24.47
2018-09-14T05:18:36.155Z,26.62
2018-09-14T05:21:07.534Z,24.90
2018-09-14T05:23:36.759Z,24.60
2018-09-14T05:26:05.921Z,25.90
2018-09-14T05:28:35.654Z,25.68
2018-09-14T05:31:05.893Z,23.98
2018-09-14T05:33:35.871Z,24.92
2018-09-14T05:36:05.934Z,24.45
2018-09-14T05:38:35.936Z,24.18
2018-09-14T05:41:09.081Z,24.00
2018-09-14T05:43:39.189Z,25.23
2018-09-14T05:46:08.519Z,25.80
2018-09-14T05:48:37.675Z,26.57
2018-09-14T05:51:06.919Z,25.60
2018-09-14T05:53:36.349Z,22.35
2018-09-14T05:56:06.728Z,24.00
2018-09-14T05:58:36.588Z,22.97
2018-09-14T06:01:06.773Z,24.25
2018-09-14T06:03:37.391Z,23.55
2018-09-14T06:06:08.767Z,23.45
2018-09-14T06:08:38.035Z,24.80
2018-09-14T06:11:07.320Z,22.60
2018-09-14T06:13:36.967Z,22.70
2018-09-14T06:16:07.207Z,22.70
2018-09-14T06:18:37.148Z,22.60
2018-09-14T06:21:07.279Z,22.30
2018-09-14T06:23:37.288Z,22.80
2018-09-14T06:26:07.394Z,23.70
2018-09-14T06:28:37.567Z,23.73
2018-09-14T06:31:07.567Z,22.95
2018-09-14T06:33:37.703Z,23.35
2018-09-14T06:36:07.468Z,22.60
2018-09-14T06:38:37.820Z,21.90
2018-09-14T06:41:07.794Z,22.87
2018-09-14T06:43:37.924Z,22.93
2018-09-14T06:46:08.056Z,24.43
2018-09-14T06:48:38.052Z,22.93
2018-09-14T06:51:08.254Z,23.05
2018-09-14T06:53:38.204Z,24.72
2018-09-14T06:56:08.251Z,22.80
2018-09-14T06:58:38.443Z,21.68
2018-09-14T07:01:08.534Z,21.80
2018-09-14T07:03:38.588Z,22.22
2018-09-14T07:06:08.663Z,21.75
2018-09-14T07:08:38.781Z,23.22
2018-09-14T07:11:08.713Z,21.60
2018-09-14T07:13:38.809Z,21.37
2018-09-14T07:16:08.891Z,20.17
2018-09-14T07:18:39.049Z,22.85
2018-09-14T07:21:09.152Z,22.13
2018-09-14T07:23:39.086Z,21.42
2018-09-14T07:26:09.311Z,22.12
2018-09-14T07:28:39.388Z,23.50
2018-09-14T07:31:10.512Z,22.00
2018-09-14T07:33:39.674Z,22.00
2018-09-14T07:36:26.453Z,21.80
2018-09-14T07:39:43.672Z,21.53
2018-09-14T07:42:25.423Z,20.33
2018-09-14T07:45:01.713Z,19.00
2018-09-14T07:47:30.923Z,19.57
2018-09-14T07:50:00.087Z,19.87
2018-09-14T07:52:29.447Z,20.33
2018-09-14T07:54:58.635Z,20.87
2018-09-14T07:57:27.853Z,20.30
2018-09-14T07:59:57.017Z,20.07
2018-09-14T08:02:26.184Z,19.70
2018-09-14T08:04:55.443Z,20.63
2018-09-14T08:07:24.600Z,19.43
2018-09-14T08:09:53.755Z,20.92
2018-09-14T08:12:22.915Z,19.17
2018-09-14T08:14:52.084Z,18.53
2018-09-14T08:17:21.336Z,19.57
2018-09-14T08:19:50.504Z,18.67
2018-09-14T08:22:19.676Z,19.87
2018-09-14T08:24:48.843Z,18.53
2018-09-14T08:27:18.725Z,19.13
2018-09-14T08:29:47.923Z,17.07
2018-09-14T08:32:17.153Z,18.00
2018-09-14T08:34:47.535Z,18.95
2018-09-14T08:37:16.786Z,19.53
2018-09-14T08:39:45.932Z,19.57
2018-09-14T08:42:15.082Z,18.43
2018-09-14T08:44:44.227Z,19.47
2018-09-14T08:47:13.635Z,19.10
2018-09-14T08:49:42.843Z,18.67
2018-09-14T08:52:12.128Z,18.95
2018-09-14T08:54:42.267Z,17.98
2018-09-14T08:57:12.379Z,17.30
2018-09-14T08:59:42.316Z,18.00
2018-09-14T09:02:12.940Z,18.20
2018-09-14T09:04:42.976Z,18.75
2018-09-14T09:07:13.019Z,18.93
2018-09-14T09:09:43.111Z,17.98
2018-09-14T09:12:13.186Z,17.90
2018-09-14T09:14:43.381Z,18.00
2018-09-14T09:17:13.247Z,17.77
2018-09-14T09:19:43.414Z,18.02
2018-09-14T09:22:12.575Z,17.03
2018-09-14T09:24:41.776Z,19.07
2018-09-14T09:27:10.943Z,18.90
2018-09-14T09:29:40.204Z,19.20
2018-09-14T09:32:09.352Z,20.07
2018-09-14T09:34:38.608Z,21.50
2018-09-14T09:37:07.806Z,21.27
2018-09-14T09:39:37.975Z,22.37
2018-09-14T09:42:07.162Z,21.83
2018-09-14T09:44:36.504Z,20.73
2018-09-14T09:47:05.692Z,21.03
2018-09-14T09:49:34.867Z,23.18
2018-09-14T09:52:04.118Z,23.30
2018-09-14T09:54:33.362Z,22.20
2018-09-14T09:57:02.591Z,22.00
2018-09-14T09:59:31.756Z,23.70
2018-09-14T10:02:06.160Z,24.20
2018-09-14T10:04:45.364Z,23.07
2018-09-14T10:07:14.531Z,22.63
2018-09-14T10:09:43.689Z,22.13
2018-09-14T10:12:12.907Z,22.17
2018-09-14T10:14:42.042Z,22.83
2018-09-14T10:17:11.302Z,23.97
2018-09-14T10:19:40.490Z,23.03
2018-09-14T10:22:09.730Z,22.60
2018-09-14T10:24:39.001Z,22.40
2018-09-14T10:27:08.203Z,23.00
2018-09-14T10:29:37.366Z,22.87
2018-09-14T10:32:06.660Z,21.37
2018-09-14T10:34:35.811Z,21.90
2018-09-14T10:37:05.065Z,21.87
2018-09-14T10:39:34.229Z,20.87
2018-09-14T10:42:05.220Z,20.67
2018-09-14T10:44:34.371Z,20.97
2018-09-14T10:47:03.515Z,19.07
2018-09-14T10:49:32.683Z,19.10
2018-09-14T10:52:01.989Z,20.53
2018-09-14T10:54:31.144Z,19.80
2018-09-14T10:57:00.303Z,19.57
2018-09-14T10:59:29.464Z,20.10
2018-09-14T11:01:58.610Z,20.97
2018-09-14T11:04:27.780Z,19.37
2018-09-14T11:06:57.235Z,21.17
2018-09-14T11:09:26.418Z,19.73
2018-09-14T11:11:55.567Z,20.85
2018-09-14T11:14:24.712Z,20.53
2018-09-14T11:16:53.902Z,20.10
2018-09-14T11:19:23.083Z,19.53
2018-09-14T11:21:52.223Z,20.23
2018-09-14T11:24:21.871Z,21.48
2018-09-14T11:26:51.746Z,21.23
2018-09-14T11:29:21.859Z,19.53
2018-09-14T11:31:51.955Z,19.95
2018-09-14T11:34:22.019Z,19.92
2018-09-14T11:36:52.136Z,18.70
2018-09-14T11:39:22.260Z,18.75
2018-09-14T11:41:57.149Z,17.45
2018-09-14T11:44:29.592Z,18.60
2018-09-14T11:46:58.855Z,19.10
2018-09-14T11:49:28.200Z,19.07
2018-09-14T11:51:57.406Z,18.87
2018-09-14T11:54:26.681Z,17.80
2018-09-14T11:56:55.830Z,17.83
2018-09-14T11:59:25.175Z,17.53
2018-09-14T12:01:54.716Z,18.43
2018-09-14T12:04:23.984Z,16.07
2018-09-14T12:06:53.267Z,15.38
2018-09-14T12:09:23.446Z,16.97
2018-09-14T12:11:53.524Z,17.65
2018-09-14T12:14:23.569Z,16.50
2018-09-14T12:16:53.783Z,16.95
2018-09-14T12:19:23.815Z,17.30
2018-09-14T12:21:53.887Z,17.77
2018-09-14T12:24:24.008Z,16.20
2018-09-14T12:26:54.175Z,14.65
2018-09-14T12:29:24.312Z,15.58
2018-09-14T12:31:54.315Z,15.83
2018-09-14T12:34:25.161Z,15.08
2018-09-14T12:36:54.564Z,16.25
2018-09-14T12:39:24.588Z,17.17
2018-09-14T12:41:54.682Z,17.02
2018-09-14T12:44:24.814Z,17.82
2018-09-14T12:46:54.940Z,17.77
2018-09-14T12:49:25.059Z,17.65
2018-09-14T12:51:55.159Z,17.60
2018-09-14T12:54:25.299Z,18.23
2018-09-14T12:56:55.410Z,18.77
2018-09-14T12:59:25.463Z,17.52
2018-09-14T13:01:55.531Z,16.17
2018-09-14T13:04:25.814Z,17.10
2018-09-14T13:06:55.740Z,17.40
2018-09-14T13:09:25.899Z,16.50
2018-09-14T13:11:55.958Z,15.72
2018-09-14T13:14:26.149Z,16.80
2018-09-14T13:16:59.778Z,16.45
2018-09-14T13:19:30.132Z,16.23
2018-09-14T13:21:59.350Z,16.03
2018-09-14T13:24:28.514Z,15.37
2018-09-14T13:26:57.688Z,14.53
2018-09-14T13:29:26.881Z,16.27
2018-09-14T13:31:57.593Z,15.75
2018-09-14T13:34:29.235Z,16.47
2018-09-14T13:37:00.435Z,17.00
2018-09-14T13:39:29.586Z,16.30
2018-09-14T13:41:58.804Z,16.67
2018-09-14T13:44:28.016Z,17.37
2018-09-14T13:46:57.474Z,16.93
2018-09-14T13:49:27.568Z,16.62
2018-09-14T13:51:57.735Z,16.23
2018-09-14T13:54:27.873Z,17.00
2018-09-14T13:56:57.881Z,16.00
2018-09-14T13:59:27.938Z,17.00
2018-09-14T14:01:58.217Z,14.80
2018-09-14T14:04:28.217Z,14.58
2018-09-14T14:06:58.369Z,13.95
2018-09-14T14:09:28.411Z,14.55
2018-09-14T14:11:58.543Z,14.18
2018-09-14T14:14:28.865Z,13.75
2018-09-14T14:16:58.950Z,14.25
2018-09-14T14:19:28.943Z,13.85
2018-09-14T14:21:58.915Z,13.28
2018-09-14T14:24:29.035Z,12.60
2018-09-14T14:26:59.163Z,13.98
2018-09-14T14:29:29.330Z,14.68
2018-09-14T14:31:59.415Z,13.93
2018-09-14T14:34:29.560Z,13.40
2018-09-14T14:36:59.699Z,13.22
2018-09-14T14:39:29.679Z,15.18
2018-09-14T14:41:59.790Z,13.15
2018-09-14T14:44:29.938Z,12.85
2018-09-14T14:47:00.081Z,13.05
2018-09-14T14:49:30.086Z,12.23
2018-09-14T14:52:00.123Z,13.68
2018-09-14T14:54:30.312Z,13.68
2018-09-14T14:57:00.391Z,13.98
2018-09-14T14:59:30.498Z,13.62
2018-09-14T15:02:00.466Z,13.35
2018-09-14T15:04:30.540Z,13.18
2018-09-14T15:07:00.704Z,12.85
2018-09-14T15:09:30.716Z,12.80
2018-09-14T15:12:00.781Z,12.68
2018-09-14T15:14:31.010Z,12.47
2018-09-14T15:17:01.083Z,12.97
2018-09-14T15:19:31.034Z,12.63
2018-09-14T15:22:01.063Z,12.70
2018-09-14T15:24:31.137Z,13.18
2018-09-14T15:27:01.205Z,13.48
2018-09-14T15:29:31.267Z,12.13
2018-09-14T15:32:01.250Z,12.70
2018-09-14T15:34:31.443Z,12.70
2018-09-14T15:37:01.533Z,11.33
2018-09-14T15:39:31.482Z,12.58
2018-09-14T15:42:01.707Z,12.78
2018-09-14T15:44:31.662Z,11.95
2018-09-14T15:47:01.743Z,11.30
2018-09-14T15:49:31.760Z,12.50
2018-09-14T15:52:01.809Z,12.35
2018-09-14T15:54:32.015Z,13.55
2018-09-14T15:57:02.079Z,12.50
2018-09-14T15:59:31.995Z,12.35
2018-09-14T16:07:06.406Z,11.63
2018-09-14T16:09:35.552Z,12.40
2018-09-14T16:12:05.450Z,13.03
2018-09-14T16:14:34.621Z,12.53
2018-09-14T16:17:03.763Z,13.53
2018-09-14T16:19:32.894Z,12.40
2018-09-14T16:22:02.720Z,11.88
2018-09-14T16:24:32.761Z,12.05
2018-09-14T16:27:02.778Z,12.73
2018-09-14T16:29:32.895Z,13.30
2018-09-14T16:32:02.957Z,11.33
2018-09-14T16:34:33.065Z,11.93
2018-09-14T16:37:03.233Z,12.33
2018-09-14T16:39:33.160Z,13.18
2018-09-14T16:42:03.329Z,13.22
2018-09-14T16:44:33.633Z,16.90
2018-09-14T16:47:03.376Z,14.20
2018-09-14T16:49:33.568Z,13.53
2018-09-14T16:52:03.487Z,13.98
2018-09-14T16:54:33.476Z,12.13
2018-09-14T16:57:03.579Z,12.90
2018-09-14T16:59:33.690Z,12.78
2018-09-14T17:02:03.944Z,12.73
2018-09-14T17:04:33.884Z,13.03
2018-09-14T17:07:03.835Z,12.00
2018-09-14T17:09:33.920Z,12.63
2018-09-14T17:12:04.057Z,12.28
2018-09-14T17:15:18.707Z,11.60
2018-09-14T17:17:54.511Z,11.87
2018-09-14T17:20:36.271Z,10.40
2018-09-14T17:25:55.663Z,10.33
2018-09-14T17:28:24.818Z,10.50
2018-09-14T17:30:54.027Z,9.50
2018-09-14T17:33:23.191Z,9.20
2018-09-14T17:35:52.431Z,8.70
2018-09-14T17:38:21.663Z,8.57
2018-09-14T17:40:50.762Z,8.25
2018-09-14T17:43:19.922Z,8.33
2018-09-14T17:45:49.084Z,8.50
2018-09-14T17:48:18.260Z,8.53
2018-09-14T17:50:47.433Z,8.10
2018-09-14T17:53:16.652Z,7.97
2018-09-14T17:55:45.820Z,7.80
2018-09-14T17:58:14.980Z,8.28
2018-09-14T18:00:44.287Z,7.92
2018-09-14T18:03:13.555Z,8.10
2018-09-14T18:05:42.649Z,7.17
2018-09-14T18:08:11.824Z,7.30
2018-09-14T18:10:40.983Z,6.70
2018-09-14T18:13:10.221Z,7.30
2018-09-14T18:15:39.566Z,7.40
2018-09-14T18:18:08.775Z,7.87
2018-09-14T18:20:37.991Z,6.87
2018-09-14T18:23:07.143Z,7.07
2018-09-14T18:25:36.648Z,7.50
2018-09-14T18:28:06.490Z,7.30
2018-09-14T18:30:36.729Z,7.80
2018-09-14T18:33:06.495Z,7.05
2018-09-14T18:35:36.733Z,6.83
2018-09-14T18:38:07.086Z,7.75
2018-09-14T18:40:36.924Z,7.08
2018-09-14T18:43:06.928Z,7.90
2018-09-14T18:45:36.995Z,8.93
2018-09-14T18:48:06.927Z,7.97
2018-09-14T18:50:37.110Z,7.92
2018-09-14T18:53:07.167Z,7.45
2018-09-14T18:55:37.169Z,8.10
2018-09-14T18:58:07.168Z,7.75
2018-09-14T19:00:37.290Z,7.53
2018-09-14T19:03:07.714Z,6.90
2018-09-14T19:05:37.670Z,7.42
2018-09-14T19:08:07.767Z,7.67
2018-09-14T19:10:38.276Z,7.37
2018-09-14T19:13:07.676Z,7.20
2018-09-14T19:15:37.895Z,6.83
2018-09-14T19:18:07.798Z,7.15
2018-09-14T19:20:38.167Z,7.05
2018-09-14T19:23:08.048Z,7.60
2018-09-14T19:25:38.404Z,7.75
2018-09-14T19:28:08.187Z,6.70
2018-09-14T19:30:38.230Z,6.85
2018-09-14T19:33:08.431Z,7.78
2018-09-14T19:35:38.548Z,7.15
2018-09-14T19:38:08.540Z,8.03
2018-09-14T19:40:38.939Z,7.65
2018-09-14T19:43:08.643Z,7.45
2018-09-14T19:45:38.796Z,6.97
2018-09-14T19:48:08.843Z,7.50
2018-09-14T19:50:38.972Z,7.83
2018-09-14T19:53:08.996Z,7.90
2018-09-14T19:55:39.393Z,7.90
2018-09-14T19:58:09.107Z,7.75
2018-09-14T20:00:39.340Z,7.92
2018-09-14T20:03:09.358Z,7.35
2018-09-14T20:05:39.400Z,6.47
2018-09-14T20:08:09.448Z,7.12
2018-09-14T20:10:39.583Z,7.37
2018-09-14T20:13:09.568Z,6.97
2018-09-14T20:15:39.769Z,7.90
2018-09-14T20:18:10.038Z,8.18
2018-09-14T20:20:39.807Z,7.58
2018-09-14T20:23:09.971Z,7.42
2018-09-14T20:25:40.015Z,7.83
2018-09-14T20:28:09.984Z,8.03
2018-09-14T20:30:40.160Z,7.47
2018-09-14T20:33:10.237Z,7.28
2018-09-14T20:35:40.230Z,7.90
2018-09-14T20:38:10.483Z,8.10
2018-09-14T20:40:40.574Z,8.10
2018-09-14T20:43:15.261Z,7.73
2018-09-14T20:45:44.417Z,7.80
2018-09-14T20:48:13.610Z,7.67
2018-09-14T20:50:42.766Z,7.70
2018-09-14T20:53:12.006Z,6.90
2018-09-14T20:55:41.216Z,7.20
2018-09-14T20:58:11.078Z,7.33
2018-09-14T21:00:41.139Z,7.55
2018-09-14T21:03:11.183Z,7.30
2018-09-14T21:05:41.261Z,7.60
2018-09-14T21:08:11.348Z,7.83
2018-09-14T21:10:41.436Z,7.67
2018-09-14T21:13:11.646Z,7.33
2018-09-14T21:15:41.620Z,7.05
2018-09-14T21:18:11.711Z,7.35
2018-09-14T21:20:41.830Z,7.62
2018-09-14T21:23:11.981Z,7.72
2018-09-14T21:25:41.995Z,7.25
2018-09-14T21:28:12.101Z,7.47
2018-09-14T21:30:42.211Z,7.60
2018-09-14T21:33:12.247Z,7.08
2018-09-14T21:35:42.392Z,7.87
2018-09-14T21:38:12.471Z,7.28
2018-09-14T21:40:42.603Z,7.55
2018-09-14T21:43:12.607Z,7.83
2018-09-14T21:45:42.740Z,7.75
2018-09-14T21:48:12.786Z,8.35
2018-09-14T21:50:42.864Z,7.22
2018-09-14T21:53:13.035Z,7.85
2018-09-14T21:55:43.011Z,7.20
2018-09-14T21:58:13.186Z,6.87
2018-09-14T22:01:49.182Z,7.15
2018-09-14T22:04:18.325Z,6.42
2018-09-14T22:06:47.485Z,7.17
2018-09-14T22:09:16.649Z,7.07
2018-09-14T22:11:45.834Z,7.80
2018-09-14T22:14:14.989Z,7.40
2018-09-14T22:16:44.146Z,7.63
2018-09-14T22:19:13.870Z,8.33
2018-09-14T22:21:44.089Z,8.30
2018-09-14T22:24:14.011Z,7.83
2018-09-14T22:26:44.140Z,7.40
2018-09-14T22:29:14.268Z,7.60
2018-09-14T22:31:44.401Z,8.43
2018-09-14T22:34:14.412Z,8.20
2018-09-14T22:36:44.642Z,8.58
2018-09-14T22:39:14.610Z,7.85
2018-09-14T22:41:44.716Z,8.10
2018-09-14T22:44:14.887Z,8.03
2018-09-14T22:46:44.896Z,8.20
2018-09-14T22:49:15.004Z,8.88
2018-09-14T22:51:45.044Z,8.95
2018-09-14T22:54:15.132Z,9.48
2018-09-14T22:56:45.283Z,9.15
2018-09-14T22:59:15.369Z,9.55
2018-09-14T23:01:45.410Z,9.80
2018-09-14T23:04:15.510Z,8.50
2018-09-14T23:06:45.647Z,8.83
2018-09-14T23:09:15.774Z,8.23
2018-09-14T23:11:45.836Z,8.03
2018-09-14T23:14:15.978Z,8.76
2018-09-14T23:16:46.022Z,8.05
2018-09-14T23:19:16.123Z,8.55
2018-09-14T23:21:46.167Z,8.70
2018-09-14T23:24:16.273Z,8.40
2018-09-14T23:26:46.382Z,8.85
2018-09-14T23:29:16.459Z,8.30
2018-09-14T23:31:51.972Z,7.60
2018-09-14T23:34:21.098Z,8.33
2018-09-14T23:36:50.243Z,8.33
2018-09-14T23:39:19.374Z,7.80
2018-09-14T23:41:48.626Z,8.43
2018-09-14T23:44:17.767Z,8.27
2018-09-14T23:46:47.438Z,8.77
2018-09-14T23:49:17.260Z,7.73
2018-09-14T23:51:47.415Z,8.53
2018-09-14T23:54:17.435Z,8.00
2018-09-14T23:56:47.522Z,7.97
2018-09-14T23:59:17.783Z,8.40
